Time;durP1;ratioP1;P1;durP2;ratioP2;P2;SDS_P1;SDS_P2;PMS_P1;PMS_P2;Temp;Humidity;BMP_temperature;BMP_pressure;BME280_temperature;BME280_humidity;BME280_pressure;Samples;Min_cycle;Max_cycle;Signal;HPM_P1;HPM_P2
2023/08/26 07:23:48;;;;;;;5.47;2.90;;;;;;;-145.79;83.78;76987.28;5313120;27;20351;-68
2023/08/26 07:26:20;;;;;;;4.53;3.00;;;;;;;-145.79;83.93;76983.03;5300715;28;20086;-68
2023/08/26 07:28:53;;;;;;;4.55;2.40;;;;;;;-145.79;84.59;76978.81;5300719;28;20032;-69
2023/08/26 07:31:24;;;;;;;4.13;2.90;;;;;;;-145.79;85.83;76949.13;5300086;28;20035;-69
2023/08/26 07:33:55;;;;;;;5.20;2.60;;;;;;;-145.79;84.96;76949.13;5300172;28;20040;-69
2023/08/26 07:36:27;;;;;;;6.50;2.50;;;;;;;-145.79;84.80;76921.59;5293375;28;20846;-69
2023/08/26 07:38:59;;;;;;;5.90;2.75;;;;;;;-145.79;83.15;76932.19;5295599;28;20103;-69
2023/08/26 07:41:30;;;;;;;6.63;2.58;;;;;;;-145.79;83.97;76917.34;5297737;28;20023;-69
2023/08/26 07:44:03;;;;;;;7.10;2.50;;;;;;;-145.79;83.94;76923.69;5292013;28;20020;-69
2023/08/26 07:46:34;;;;;;;5.45;3.00;;;;;;;-145.79;82.97;76910.97;5295171;28;20032;-69
2023/08/26 07:49:05;;;;;;;4.63;2.03;;;;;;;-145.79;83.92;76894.03;5300603;28;20020;-69
2023/08/26 07:51:37;;;;;;;5.07;2.30;;;;;;;-145.79;83.12;76894.03;5299589;28;20033;-69
2023/08/26 07:54:09;;;;;;;4.25;2.40;;;;;;;-145.79;83.21;76879.19;5291950;28;20541;-70
2023/08/26 07:56:40;;;;;;;3.38;2.40;;;;;;;-145.79;82.61;76872.84;5293028;28;20032;-72
2023/08/26 07:59:11;;;;;;;3.65;2.38;;;;;;;-145.79;82.25;76866.47;5299929;28;20029;-70
2023/08/26 08:01:43;;;;;;;5.32;2.50;;;;;;;-145.79;81.48;76872.84;5300517;28;20024;-68
2023/08/26 08:04:14;;;;;;;4.95;2.17;;;;;;;-145.79;81.76;76860.13;5300008;28;20406;-68
2023/08/26 08:06:45;;;;;;;5.03;2.20;;;;;;;-145.79;81.58;76849.53;5298592;28;20024;-69
2023/08/26 08:09:17;;;;;;;4.90;2.28;;;;;;;-145.79;81.41;76838.94;5290783;28;20028;-70
2023/08/26 08:11:48;;;;;;;7.05;3.78;;;;;;;-145.79;81.18;76828.31;5291979;28;20032;-70
2023/08/26 08:14:19;;;;;;;5.93;2.28;;;;;;;-145.79;80.33;76821.97;5299498;28;20028;-70
2023/08/26 08:16:51;;;;;;;5.10;2.53;;;;;;;-145.79;80.39;76817.72;5299722;28;20032;-70
2023/08/26 08:19:24;;;;;;;5.45;2.08;;;;;;;-145.79;79.51;76815.63;5293252;28;20024;-71
2023/08/26 08:21:55;;;;;;;5.28;2.03;;;;;;;-145.79;79.92;76794.41;5300059;28;20036;-70
2023/08/26 08:24:26;;;;;;;5.60;2.25;;;;;;;-145.79;79.83;76796.53;5319816;28;20028;-70
2023/08/26 08:26:58;;;;;;;13.48;10.82;;;;;;;-145.79;78.99;76785.94;5314029;28;20059;-70
2023/08/26 08:29:29;;;;;;;4.25;2.35;;;;;;;-145.79;77.69;76783.81;5315220;28;20055;-70
2023/08/26 08:32:01;;;;;;;25.92;23.20;;;;;;;-145.79;78.57;76762.63;5316000;28;20073;-71
2023/08/26 08:34:33;;;;;;;8.90;5.50;;;;;;;-145.79;77.81;76756.28;5301372;28;20088;-72
2023/08/26 08:37:04;;;;;;;4.53;2.45;;;;;;;-145.79;76.93;76747.78;5300028;28;20025;-71
2023/08/26 08:39:36;;;;;;;8.43;7.25;;;;;;;-145.79;76.80;76741.44;5304755;28;20054;-71
2023/08/26 08:42:14;;;;;;;3.47;1.70;;;;;;;-145.79;76.06;76743.56;5302344;28;20028;-71
2023/08/26 08:44:49;;;;;;;11.85;2.92;;;;;;;-145.79;77.01;76741.44;5298857;28;20205;-72
2023/08/26 08:47:21;;;;;;;5.43;2.10;;;;;;;-145.79;77.39;76732.97;5301182;28;20095;-74
2023/08/26 08:49:54;;;;;;;3.58;1.63;;;;;;;-145.79;76.22;76730.84;5299356;28;20032;-74
2023/08/26 08:52:26;;;;;;;5.28;2.70;;;;;;;-145.79;75.08;76726.59;5298226;28;20020;-74
2023/08/26 08:54:57;;;;;;;4.05;1.70;;;;;;;-145.79;74.52;76716.00;5298405;28;20020;-72
2023/08/26 08:57:32;;;;;;;2.90;1.77;;;;;;;-145.79;75.09;76694.81;5307510;28;20100;-75
2023/08/26 09:00:05;;;;;;;5.88;4.72;;;;;;;-145.79;74.60;76673.63;5309286;28;20479;-74
2023/08/26 09:02:42;;;;;;;6.95;4.10;;;;;;;-145.79;75.11;76658.78;5309362;28;20077;-74
2023/08/26 09:05:14;;;;;;;4.45;2.20;;;;;;;-145.79;75.97;76637.59;5307784;28;20028;-75
2023/08/26 09:07:46;;;;;;;2.55;1.80;;;;;;;-145.79;73.27;76667.25;5305285;28;20028;-74
2023/08/26 09:10:18;;;;;;;5.78;4.60;;;;;;;-145.79;72.94;76675.75;5293374;28;20035;-72
2023/08/26 09:12:49;;;;;;;2.55;1.55;;;;;;;-145.79;72.35;76669.38;5299361;28;20135;-74
2023/08/26 09:15:21;;;;;;;6.60;1.77;;;;;;;-145.79;71.82;76673.63;5303280;28;20110;-73
2023/08/26 09:17:58;;;;;;;7.95;7.05;;;;;;;-145.79;72.03;76675.75;5302019;28;20134;-72
2023/08/26 09:20:34;;;;;;;2.38;1.40;;;;;;;-145.79;72.59;76660.91;5300390;28;20549;-73
2023/08/26 09:23:07;;;;;;;2.88;1.95;;;;;;;-145.79;72.17;76669.38;5304205;28;20043;-72
2023/08/26 09:25:50;;;;;;;3.92;1.95;;;;;;;-145.79;73.37;76639.72;5305563;28;20035;-73
2023/08/26 09:28:26;;;;;;;2.63;1.60;;;;;;;-145.79;71.11;76618.53;5305330;28;20372;-73
2023/08/26 09:31:05;;;;;;;2.90;1.25;;;;;;;-145.79;70.40;76629.13;5304585;28;20478;-73
2023/08/26 09:33:37;;;;;;;3.45;1.50;;;;;;;-145.79;69.25;76616.41;5305204;28;20032;-73
2023/08/26 09:36:09;;;;;;;2.13;1.20;;;;;;;-145.79;69.83;76618.53;5301510;28;20483;-74
2023/08/26 09:38:52;;;;;;;2.22;1.30;;;;;;;-145.79;68.84;76622.75;5293279;28;20024;-71
2023/08/26 09:41:24;;;;;;;2.92;1.20;;;;;;;-145.79;69.25;76631.22;5303488;28;20521;-72
2023/08/26 09:43:56;;;;;;;2.42;1.20;;;;;;;-145.79;69.57;76639.72;5304583;28;20024;-72
2023/08/26 09:46:35;;;;;;;2.50;1.27;;;;;;;-145.79;69.51;76643.94;5303222;28;20069;-75
2023/08/26 09:49:06;;;;;;;3.95;1.55;;;;;;;-145.79;69.15;76665.16;5299997;28;20024;-72
2023/08/26 09:51:39;;;;;;;2.38;1.30;;;;;;;-145.79;70.37;76624.88;5301160;28;20156;-72
2023/08/26 09:54:14;;;;;;;3.50;1.20;;;;;;;-145.79;67.87;76633.34;5299130;28;20151;-72
2023/08/26 09:56:46;;;;;;;1.42;1.20;;;;;;;-145.79;68.66;76614.28;5303767;28;20497;-71
2023/08/26 09:59:17;;;;;;;4.07;1.63;;;;;;;-145.79;67.13;76627.00;5299531;28;20111;-72
2023/08/26 10:01:49;;;;;;;2.97;1.65;;;;;;;-145.79;68.18;76595.22;5304473;28;20020;-73
2023/08/26 10:04:24;;;;;;;4.13;1.40;;;;;;;-145.79;68.61;76590.97;5303907;28;20024;-71
2023/08/26 10:06:58;;;;;;;3.88;1.50;;;;;;;-145.79;68.25;76576.13;5304209;28;20024;-72
2023/08/26 10:09:36;;;;;;;2.42;1.63;;;;;;;-145.79;66.58;76563.41;5301676;28;20028;-71
2023/08/26 10:12:25;;;;;;;2.88;2.05;;;;;;;-145.79;67.14;76554.94;5296280;28;20490;-73
2023/08/26 10:15:01;;;;;;;10.30;8.30;;;;;;;-145.79;66.50;76563.41;5301709;28;20021;-71
2023/08/26 10:17:33;;;;;;;3.17;2.00;;;;;;;-145.79;67.16;76578.25;5304317;28;20056;-71
2023/08/26 10:20:05;;;;;;;1.95;1.60;;;;;;;-145.79;66.69;76610.03;5295947;28;20387;-70
2023/08/26 10:22:37;;;;;;;3.20;1.60;;;;;;;-145.79;67.66;76595.22;5296243;28;20051;-70
2023/08/26 10:25:10;;;;;;;1.73;1.50;;;;;;;-145.79;67.34;76622.75;5299255;28;20468;-72
2023/08/26 10:27:43;;;;;;;4.25;1.65;;;;;;;-145.79;69.15;76571.91;5297056;28;20032;-71
2023/08/26 10:30:15;;;;;;;4.55;2.33;;;;;;;-145.79;68.40;76576.13;5304469;28;20028;-71
2023/08/26 10:32:47;;;;;;;2.75;1.60;;;;;;;-145.79;67.88;76542.22;5295564;28;20063;-69
2023/08/26 10:35:18;;;;;;;1.88;1.50;;;;;;;-145.79;66.18;76533.75;5297914;28;20056;-69
2023/08/26 10:37:50;;;;;;;2.88;1.30;;;;;;;-145.79;65.69;76512.56;5303481;28;20066;-72
2023/08/26 10:40:31;;;;;;;23.15;10.15;;;;;;;-145.79;63.98;76521.03;5297332;28;20468;-71
2023/08/26 10:43:08;;;;;;;4.43;1.80;;;;;;;-145.79;64.16;76510.44;5297436;28;20037;-71
2023/08/26 10:45:47;;;;;;;2.40;1.45;;;;;;;-145.79;64.28;76491.38;5289267;28;20028;-72
2023/08/26 10:48:20;;;;;;;1.73;1.17;;;;;;;-145.79;63.07;76499.84;5302938;28;20082;-73
2023/08/26 10:50:59;;;;;;;3.50;1.98;;;;;;;-145.79;64.77;76478.66;5300614;28;20032;-69
2023/08/26 10:53:42;;;;;;;2.53;2.03;;;;;;;-145.79;63.44;76501.97;5298899;28;20110;-71
2023/08/26 10:56:18;;;;;;;2.50;1.92;;;;;;;-145.79;63.68;76497.72;5303258;28;20459;-70
2023/08/26 10:58:49;;;;;;;3.45;1.25;;;;;;;-145.79;63.75;76478.66;5303436;28;20059;-71
2023/08/26 11:01:21;;;;;;;2.08;1.60;;;;;;;-145.79;62.73;76474.41;5301989;28;20463;-70
2023/08/26 11:03:52;;;;;;;2.45;1.20;;;;;;;-145.79;62.77;76476.53;5294769;28;20023;-70
2023/08/26 11:06:24;;;;;;;1.88;1.27;;;;;;;-145.79;62.59;76468.06;5303516;28;20039;-71
2023/08/26 11:08:57;;;;;;;1.90;1.10;;;;;;;-145.79;62.92;76444.75;5302120;28;20070;-71
2023/08/26 11:11:28;;;;;;;1.98;1.15;;;;;;;-145.79;60.74;76444.75;5303493;28;20051;-71
2023/08/26 11:13:59;;;;;;;3.95;2.70;;;;;;;-145.79;59.63;76436.28;5301078;28;20028;-71
2023/08/26 11:16:32;;;;;;;5.70;1.67;;;;;;;-145.79;58.67;76442.63;5291437;28;20506;-70
2023/08/26 11:19:04;;;;;;;2.20;1.10;;;;;;;-145.79;59.65;76406.59;5297376;28;20031;-70
2023/08/26 11:21:37;;;;;;;2.63;1.20;;;;;;;-145.79;59.82;76408.72;5302181;28;20475;-70
2023/08/26 11:24:08;;;;;;;2.25;1.20;;;;;;;-145.79;59.81;76406.59;5300887;28;20036;-71
2023/08/26 11:26:47;;;;;;;3.50;1.40;;;;;;;-145.79;58.31;76427.78;5301327;28;20031;-71
2023/08/26 11:29:18;;;;;;;2.08;1.10;;;;;;;-145.79;58.54;76444.75;5300118;28;20027;-72
2023/08/26 11:31:49;;;;;;;2.40;1.40;;;;;;;-145.79;58.78;76455.34;5301585;28;20387;-70
2023/08/26 11:34:23;;;;;;;5.57;2.92;;;;;;;-145.79;59.12;76423.56;5298738;28;20051;-72
2023/08/26 11:36:54;;;;;;;2.20;1.13;;;;;;;-145.79;59.03;76404.47;5295491;28;20035;-71
2023/08/26 11:39:35;;;;;;;3.22;1.50;;;;;;;-145.79;57.82;76398.13;5300713;28;20020;-72
2023/08/26 11:42:14;;;;;;;3.53;1.80;;;;;;;-145.79;58.24;76389.66;5300719;28;20040;-71
2023/08/26 11:44:48;;;;;;;2.10;1.23;;;;;;;-145.79;56.94;76387.53;5302321;28;20020;-71
2023/08/26 11:47:19;;;;;;;2.88;1.40;;;;;;;-145.79;57.66;76396.00;5301071;28;20037;-71
2023/08/26 11:49:57;;;;;;;3.25;1.75;;;;;;;-145.79;56.07;76393.88;5297390;28;20031;-71
2023/08/26 11:52:36;;;;;;;1.70;1.30;;;;;;;-145.79;55.73;76402.38;5292688;28;20447;-71
2023/08/26 11:55:09;;;;;;;4.65;1.42;;;;;;;-145.79;56.36;76423.56;5299419;28;20035;-72
2023/08/26 11:57:41;;;;;;;3.22;1.73;;;;;;;-145.79;56.04;76444.75;5297784;28;20028;-72
2023/08/26 12:00:16;;;;;;;2.72;1.70;;;;;;;-145.79;57.27;76421.44;5293775;28;20047;-72
2023/08/26 12:02:52;;;;;;;2.13;1.10;;;;;;;-145.79;57.89;76429.91;5297779;28;20157;-70
2023/08/26 12:05:24;;;;;;;5.03;2.97;;;;;;;-145.79;58.12;76423.56;5294434;28;20027;-71
2023/08/26 12:07:56;;;;;;;2.13;1.50;;;;;;;-145.79;57.48;76446.88;5293857;28;20039;-69
2023/08/26 12:10:29;;;;;;;4.28;1.90;;;;;;;-145.79;58.24;76417.19;5303777;28;20028;-68
2023/08/26 12:13:04;;;;;;;5.90;5.30;;;;;;;-145.79;58.30;76410.84;5305614;28;20458;-69
2023/08/26 12:15:39;;;;;;;4.43;1.70;;;;;;;-145.79;58.45;76393.88;5305265;28;20063;-71
2023/08/26 12:18:11;;;;;;;3.63;1.27;;;;;;;-145.79;58.78;76389.66;5305518;28;20032;-74
2023/08/26 12:20:46;;;;;;;4.22;1.30;;;;;;;-145.79;57.47;76376.94;5305292;28;20027;-70
2023/08/26 12:23:21;;;;;;;1.63;1.15;;;;;;;-145.79;56.94;76372.69;5305464;28;20040;-70
2023/08/26 12:25:52;;;;;;;2.30;1.33;;;;;;;-145.79;57.94;76338.78;5298982;28;20349;-71
2023/08/26 12:28:24;;;;;;;4.32;2.15;;;;;;;-145.79;55.37;76330.31;5302596;28;20036;-71
2023/08/26 12:30:56;;;;;;;3.67;1.90;;;;;;;-145.79;54.98;76330.31;5306418;28;20028;-72
2023/08/26 12:33:27;;;;;;;3.08;1.30;;;;;;;-145.79;55.20;76338.78;5301380;28;20040;-75
2023/08/26 12:35:59;;;;;;;2.90;1.70;;;;;;;-145.79;56.10;76351.50;5306342;28;20028;-73
2023/08/26 12:38:30;;;;;;;4.00;2.03;;;;;;;-145.79;57.53;76338.78;5306578;28;20031;-72
2023/08/26 12:41:04;;;;;;;2.10;1.20;;;;;;;-145.79;57.61;76349.38;5306242;28;20447;-74
2023/08/26 12:43:36;;;;;;;2.53;1.60;;;;;;;-145.79;56.63;76355.75;5303774;28;20393;-73
2023/08/26 12:46:07;;;;;;;2.05;1.20;;;;;;;-145.79;57.17;76336.66;5303976;28;20077;-72
2023/08/26 12:48:39;;;;;;;2.65;1.55;;;;;;;-145.79;57.33;76304.88;5305517;28;20490;-72
2023/08/26 12:51:10;;;;;;;5.22;1.55;;;;;;;-145.79;56.08;76285.81;5302000;28;20020;-72
2023/08/26 12:53:43;;;;;;;1.60;1.30;;;;;;;-145.79;56.10;76262.50;5304804;28;20024;-70
2023/08/26 12:56:14;;;;;;;4.03;1.40;;;;;;;-145.79;55.01;76239.19;5305275;28;20444;-73
2023/08/26 12:58:48;;;;;;;5.70;1.35;;;;;;;-145.79;54.91;76228.59;5303578;28;20053;-72
2023/08/26 13:01:19;;;;;;;1.77;1.30;;;;;;;-145.79;54.09;76234.97;5303386;28;20119;-72
2023/08/26 13:03:50;;;;;;;1.98;1.00;;;;;;;-145.79;53.67;76241.31;5303723;28;20119;-72
2023/08/26 13:06:22;;;;;;;2.58;1.40;;;;;;;-145.79;54.49;76266.75;5302835;28;20030;-72
2023/08/26 13:08:53;;;;;;;1.33;0.98;;;;;;;-145.79;54.44;76290.06;5300464;28;20344;-72
2023/08/26 13:11:24;;;;;;;4.32;1.40;;;;;;;-145.79;55.53;76249.78;5304728;28;20031;-72
2023/08/26 13:13:56;;;;;;;25.70;23.23;;;;;;;-145.79;54.61;76232.84;5304052;28;20484;-72
2023/08/26 13:16:27;;;;;;;7.00;5.85;;;;;;;-145.79;53.17;76209.53;5301607;28;20474;-72
2023/08/26 13:18:59;;;;;;;3.67;1.80;;;;;;;-145.79;52.27;76205.28;5303895;28;20061;-74
2023/08/26 13:21:30;;;;;;;2.15;1.42;;;;;;;-145.79;51.74;76188.34;5298164;28;20056;-73
2023/08/26 13:24:02;;;;;;;1.98;1.17;;;;;;;-145.79;52.33;76169.25;5303213;28;20051;-72
2023/08/26 13:26:33;;;;;;;1.10;1.00;;;;;;;-145.79;52.57;76156.56;5303736;28;20428;-72
2023/08/26 13:29:05;;;;;;;2.28;1.20;;;;;;;-145.79;52.18;76139.59;5300572;28;20043;-73
2023/08/26 13:31:36;;;;;;;3.22;1.50;;;;;;;-145.79;51.19;76139.59;5302385;28;20064;-73
2023/08/26 13:34:07;;;;;;;2.67;1.13;;;;;;;-145.79;51.44;76118.41;5301717;28;20022;-73
2023/08/26 13:36:40;;;;;;;3.05;1.42;;;;;;;-145.79;50.80;76107.81;5297595;28;20023;-75
2023/08/26 13:39:12;;;;;;;4.32;1.38;;;;;;;-145.79;50.14;76086.63;5303919;28;20392;-75
2023/08/26 13:41:43;;;;;;;2.15;1.17;;;;;;;-145.79;50.17;76114.19;5303397;28;20108;-73
2023/08/26 13:44:14;;;;;;;2.55;1.55;;;;;;;-145.79;50.31;76118.41;5299620;28;20429;-73
2023/08/26 13:46:46;;;;;;;1.02;0.90;;;;;;;-145.79;50.20;76152.31;5304347;28;20016;-72
2023/08/26 13:49:17;;;;;;;17.15;15.45;;;;;;;-145.79;50.85;76158.66;5302989;28;20410;-72
2023/08/26 13:51:48;;;;;;;5.32;4.22;;;;;;;-145.79;51.35;76158.66;5300414;28;20063;-73
2023/08/26 13:54:22;;;;;;;3.78;2.00;;;;;;;-145.79;50.12;76143.84;5301116;28;20493;-73
2023/08/26 13:56:53;;;;;;;3.17;1.80;;;;;;;-145.79;48.68;76165.03;5299386;28;20383;-73
2023/08/26 13:59:25;;;;;;;2.28;1.50;;;;;;;-145.79;49.98;76177.75;5303932;28;20031;-73
2023/08/26 14:01:57;;;;;;;2.55;1.27;;;;;;;-145.79;49.79;76181.97;5300945;28;20031;-73
2023/08/26 14:04:28;;;;;;;3.55;1.20;;;;;;;-145.79;50.15;76143.84;5299772;28;20456;-72
2023/08/26 14:06:59;;;;;;;5.15;3.58;;;;;;;-145.79;49.47;76122.66;5302692;28;20020;-72
2023/08/26 14:09:31;;;;;;;2.83;1.55;;;;;;;-145.79;48.60;76107.81;5301301;28;20040;-71
2023/08/26 14:12:02;;;;;;;1.88;1.27;;;;;;;-145.79;47.97;76099.34;5302086;28;20020;-71
2023/08/26 14:14:33;;;;;;;3.58;1.77;;;;;;;-145.79;48.39;76131.13;5300382;28;20538;-71
2023/08/26 14:17:05;;;;;;;2.80;1.40;;;;;;;-145.79;48.21;76162.91;5298817;28;20056;-77
2023/08/26 14:19:36;;;;;;;2.25;1.00;;;;;;;-145.79;48.35;76156.56;5304749;28;20090;-72
2023/08/26 14:22:07;;;;;;;2.08;0.90;;;;;;;-145.79;48.75;76150.19;5298468;28;20127;-72
2023/08/26 14:24:39;;;;;;;1.17;1.05;;;;;;;-145.79;48.74;76160.78;5294156;28;20494;-71
2023/08/26 14:27:11;;;;;;;2.03;1.10;;;;;;;-145.79;49.48;76171.38;5301419;28;20695;-71
2023/08/26 14:29:43;;;;;;;1.70;1.00;;;;;;;-145.79;48.10;76215.88;5304470;28;20044;-72
2023/08/26 14:32:14;;;;;;;2.22;1.60;;;;;;;-145.79;49.81;76192.56;5292727;28;20039;-70
2023/08/26 14:34:45;;;;;;;3.00;1.30;;;;;;;-145.79;48.74;76196.81;5298068;28;20035;-73
2023/08/26 14:37:17;;;;;;;1.42;0.80;;;;;;;-145.79;48.62;76207.41;5296287;28;20103;-68
2023/08/26 14:39:48;;;;;;;1.50;1.08;;;;;;;-145.79;49.13;76196.81;5299803;28;20458;-71
2023/08/26 14:42:19;;;;;;;2.53;1.10;;;;;;;-145.79;49.62;76194.69;5296687;28;20036;-71
2023/08/26 14:44:51;;;;;;;2.47;1.20;;;;;;;-145.79;48.92;76198.94;5298382;28;20125;-71
2023/08/26 14:47:22;;;;;;;1.60;0.80;;;;;;;-145.79;47.93;76190.47;5302991;28;20103;-70
2023/08/26 14:49:54;;;;;;;2.65;1.30;;;;;;;-145.79;48.33;76177.75;5303605;28;20073;-70
2023/08/26 14:52:25;;;;;;;1.85;1.20;;;;;;;-145.79;48.35;76169.25;5298724;28;20475;-70
2023/08/26 14:54:57;;;;;;;4.47;1.23;;;;;;;-145.79;48.52;76173.50;5302986;28;20019;-72
2023/08/26 14:57:28;;;;;;;1.52;1.23;;;;;;;-145.79;49.34;76179.88;5301676;28;20023;-71
2023/08/26 15:00:00;;;;;;;4.82;2.42;;;;;;;-145.79;49.18;76186.22;5300726;28;20106;-72
2023/08/26 15:02:31;;;;;;;3.30;1.30;;;;;;;-145.79;49.25;76201.06;5302116;28;20605;-72
2023/08/26 15:05:03;;;;;;;2.00;0.90;;;;;;;-145.79;48.61;76220.13;5302795;28;20111;-72
2023/08/26 15:07:34;;;;;;;2.55;1.00;;;;;;;-145.79;49.06;76211.66;5301655;28;20495;-71
2023/08/26 15:10:06;;;;;;;4.47;1.50;;;;;;;-145.79;49.21;76203.16;5302050;28;20111;-72
2023/08/26 15:12:38;;;;;;;1.17;1.08;;;;;;;-145.79;49.04;76205.28;5303111;28;20039;-73
2023/08/26 15:15:09;;;;;;;1.17;0.95;;;;;;;-145.79;49.92;76194.69;5301517;28;20051;-73
2023/08/26 15:17:42;;;;;;;1.35;0.80;;;;;;;-145.79;49.35;76203.16;5302174;28;20027;-72
2023/08/26 15:20:13;;;;;;;3.35;2.65;;;;;;;-145.79;49.42;76198.94;5299949;28;20387;-73
2023/08/26 15:22:44;;;;;;;6.07;3.05;;;;;;;-145.79;49.46;76211.66;5300661;28;20044;-70
2023/08/26 15:25:16;;;;;;;2.40;1.23;;;;;;;-145.79;48.51;76232.84;5300801;28;20097;-64
2023/08/26 15:27:47;;;;;;;1.95;1.45;;;;;;;-145.79;48.36;76241.31;5301176;28;20099;-65
2023/08/26 15:30:20;;;;;;;1.27;1.02;;;;;;;-145.79;49.32;76249.78;5300823;28;20376;-64
2023/08/26 15:32:52;;;;;;;2.15;0.98;;;;;;;-145.79;49.90;76302.75;5296506;28;20027;-64
2023/08/26 15:35:25;;;;;;;3.90;2.30;;;;;;;-145.79;54.54;76345.16;5297890;28;20452;-64
2023/08/26 15:37:56;;;;;;;3.00;2.03;;;;;;;-145.79;56.55;76383.28;5302615;28;20441;-63
2023/08/26 15:40:29;;;;;;;4.32;2.05;;;;;;;-145.79;57.72;76396.00;5298702;28;20028;-63
2023/08/26 15:43:00;;;;;;;2.00;1.30;;;;;;;-145.79;57.21;76385.41;5300351;28;20337;-63
2023/08/26 15:45:32;;;;;;;2.25;1.60;;;;;;;-145.79;56.62;76415.06;5306107;28;20034;-63
2023/08/26 15:48:03;;;;;;;1.48;1.33;;;;;;;-145.79;56.68;76478.66;5305514;28;20023;-63
2023/08/26 15:50:35;;;;;;;2.85;1.23;;;;;;;-145.79;57.12;76457.47;5301188;28;20123;-62
2023/08/26 15:53:06;;;;;;;1.65;1.23;;;;;;;-145.79;56.78;76448.97;5306972;28;20395;-62
2023/08/26 15:55:38;;;;;;;1.42;1.23;;;;;;;-145.79;56.79;76491.38;5305573;28;20054;-62
2023/08/26 15:58:11;;;;;;;1.17;0.98;;;;;;;-145.79;57.49;76527.38;5306465;28;20531;-63
2023/08/26 16:00:44;;;;;;;1.90;1.20;;;;;;;-145.79;58.22;76540.09;5306260;28;20111;-63
2023/08/26 16:03:17;;;;;;;2.25;1.13;;;;;;;-145.79;58.49;76565.53;5305799;28;20020;-63
2023/08/26 16:05:50;;;;;;;2.88;0.90;;;;;;;-145.79;59.02;76569.78;5304862;28;20024;-64
2023/08/26 16:08:21;;;;;;;2.83;1.25;;;;;;;-145.79;59.63;76542.22;5305566;28;20023;-62
2023/08/26 16:10:52;;;;;;;1.25;0.80;;;;;;;-145.79;60.51;76559.19;5305466;28;20115;-62
2023/08/26 16:13:23;;;;;;;17.88;16.08;;;;;;;-145.79;60.41;76554.94;5303038;28;20035;-63
2023/08/26 16:15:55;;;;;;;2.38;1.92;;;;;;;-145.79;61.13;76552.81;5304821;28;20024;-63
2023/08/26 16:18:26;;;;;;;1.63;1.00;;;;;;;-145.79;61.24;76546.47;5306530;28;20055;-62
2023/08/26 16:20:57;;;;;;;1.48;1.33;;;;;;;-145.79;62.39;76561.28;5306813;28;20052;-63
2023/08/26 16:23:30;;;;;;;2.58;1.10;;;;;;;-145.79;62.44;76542.22;5297246;28;20044;-63
2023/08/26 16:26:01;;;;;;;1.25;0.80;;;;;;;-145.79;62.61;76538.00;5303196;28;20471;-63
2023/08/26 16:28:32;;;;;;;1.58;1.48;;;;;;;-145.79;62.33;76516.78;5304401;28;20073;-62
2023/08/26 16:31:07;;;;;;;1.30;0.93;;;;;;;-145.79;62.13;76542.22;5301516;28;20063;-62
2023/08/26 16:33:39;;;;;;;1.55;1.00;;;;;;;-145.79;63.42;76546.47;5306722;28;20469;-63
2023/08/26 16:36:11;;;;;;;3.20;1.05;;;;;;;-145.79;63.81;76567.66;5306745;28;20103;-63
2023/08/26 16:38:42;;;;;;;1.30;1.02;;;;;;;-145.79;64.00;76546.47;5305812;28;20023;-63
2023/08/26 16:41:13;;;;;;;4.18;1.75;;;;;;;-145.79;64.33;76516.78;5300340;28;20024;-63
2023/08/26 16:43:45;;;;;;;2.38;1.33;;;;;;;-145.79;64.23;76523.16;5299527;28;20051;-63
2023/08/26 16:46:16;;;;;;;1.75;1.20;;;;;;;-145.79;63.89;76521.03;5298740;28;20439;-64
2023/08/26 16:48:47;;;;;;;2.33;2.13;;;;;;;-145.79;63.92;76512.56;5306321;28;20073;-63
2023/08/26 16:51:19;;;;;;;4.25;3.05;;;;;;;-145.79;64.03;76538.00;5306206;28;20028;-62
2023/08/26 16:53:50;;;;;;;3.22;1.80;;;;;;;-145.79;64.21;76527.38;5305521;28;20036;-63
